createdAt,value
2019-03-11T00:00:04.676Z,7.75
2019-03-11T00:02:33.675Z,4.47
2019-03-11T00:05:01.324Z,5.97
2019-03-11T00:07:28.331Z,8.40
2019-03-11T00:09:55.686Z,6.20
2019-03-11T00:12:22.844Z,5.42
2019-03-11T00:14:50.102Z,4.17
2019-03-11T00:17:17.429Z,3.77
2019-03-11T00:19:44.540Z,3.12
2019-03-11T00:22:11.527Z,5.83
2019-03-11T00:24:38.867Z,4.00
2019-03-11T00:27:06.158Z,6.47
2019-03-11T00:29:33.171Z,6.03
2019-03-11T00:32:00.154Z,8.13
2019-03-11T00:34:27.460Z,5.95
2019-03-11T00:36:54.688Z,7.12
2019-03-11T00:39:21.962Z,7.53
2019-03-11T00:41:49.018Z,8.80
2019-03-11T00:44:16.283Z,8.80
2019-03-11T00:46:43.312Z,10.70
2019-03-11T00:49:10.331Z,9.78
2019-03-11T00:51:37.389Z,10.90
2019-03-11T00:54:04.468Z,7.85
2019-03-11T00:56:31.531Z,7.92
2019-03-11T00:58:58.543Z,5.87
2019-03-11T01:01:25.499Z,8.20
2019-03-11T01:03:52.855Z,6.78
2019-03-11T01:06:19.960Z,7.58
2019-03-11T01:08:47.103Z,4.67
2019-03-11T01:11:14.202Z,4.15
2019-03-11T01:13:41.203Z,2.67
2019-03-11T01:16:08.578Z,2.67
2019-03-11T01:18:35.846Z,2.92
2019-03-11T01:21:03.181Z,3.40
2019-03-11T01:23:30.143Z,3.42
2019-03-11T01:25:57.197Z,4.50
2019-03-11T01:28:24.175Z,4.15
2019-03-11T01:30:51.253Z,4.20
2019-03-11T01:33:18.250Z,5.20
2019-03-11T01:35:45.312Z,5.37
2019-03-11T01:38:13.269Z,5.25
2019-03-11T01:40:40.221Z,4.97
2019-03-11T01:43:07.301Z,5.35
2019-03-11T01:45:34.814Z,5.93
2019-03-11T01:48:02.023Z,6.17
2019-03-11T01:50:29.626Z,6.08
2019-03-11T01:52:56.984Z,6.03
2019-03-11T01:55:24.045Z,5.80
2019-03-11T01:57:51.442Z,5.22
2019-03-11T02:00:18.717Z,4.67
2019-03-11T02:02:45.938Z,6.15
2019-03-11T02:05:13.119Z,4.73
2019-03-11T02:07:40.191Z,5.42
2019-03-11T02:10:09.779Z,5.20
2019-03-11T02:12:37.198Z,4.80
2019-03-11T02:15:04.580Z,6.10
2019-03-11T02:17:31.705Z,5.97
2019-03-11T02:19:58.918Z,6.47
2019-03-11T02:22:25.887Z,6.17
2019-03-11T02:24:52.933Z,6.28
2019-03-11T02:27:19.919Z,5.72
2019-03-11T02:29:46.879Z,5.60
2019-03-11T02:32:15.087Z,5.57
2019-03-11T02:34:42.456Z,5.23
2019-03-11T02:37:09.519Z,5.40
2019-03-11T02:39:36.885Z,6.70
2019-03-11T02:42:04.081Z,5.33
2019-03-11T02:44:32.404Z,5.50
2019-03-11T02:46:59.368Z,4.47
2019-03-11T02:49:26.391Z,5.10
2019-03-11T02:51:53.367Z,4.37
2019-03-11T02:54:20.406Z,5.50
2019-03-11T02:56:48.494Z,3.33
2019-03-11T02:59:15.885Z,4.05
2019-03-11T03:02:07.998Z,5.70
2019-03-11T03:04:41.363Z,3.17
2019-03-11T03:07:08.362Z,3.50
2019-03-11T03:09:36.647Z,4.58
2019-03-11T03:12:04.119Z,2.87
2019-03-11T03:14:31.198Z,4.73
2019-03-11T03:16:58.154Z,2.90
2019-03-11T03:19:25.154Z,2.55
2019-03-11T03:21:52.461Z,2.60
2019-03-11T03:24:19.450Z,3.70
2019-03-11T03:26:46.605Z,4.22
2019-03-11T03:29:13.867Z,4.35
2019-03-11T03:31:40.905Z,5.63
2019-03-11T03:34:07.975Z,6.83
2019-03-11T03:36:35.408Z,6.78
2019-03-11T03:39:04.506Z,6.57
2019-03-11T03:41:33.218Z,8.98
2019-03-11T03:44:00.391Z,10.17
2019-03-11T03:46:27.351Z,7.92
2019-03-11T03:48:54.336Z,12.27
2019-03-11T03:51:21.410Z,9.30
2019-03-11T03:53:48.473Z,6.93
2019-03-11T03:56:15.591Z,8.15
2019-03-11T03:58:43.140Z,10.30
2019-03-11T04:01:10.124Z,8.57
2019-03-11T04:03:37.079Z,7.30
2019-03-11T04:06:04.294Z,8.10
2019-03-11T04:08:31.473Z,7.63
2019-03-11T04:10:58.886Z,11.07
2019-03-11T04:13:26.178Z,6.63
2019-03-11T04:15:53.375Z,6.43
2019-03-11T04:18:21.700Z,7.27
2019-03-11T04:20:48.797Z,7.37
2019-03-11T04:23:16.398Z,4.30
2019-03-11T04:25:43.524Z,7.27
2019-03-11T04:28:10.715Z,5.37
2019-03-11T04:30:37.936Z,5.57
2019-03-11T04:33:04.931Z,6.10
2019-03-11T04:35:32.283Z,7.57
2019-03-11T04:37:59.612Z,5.87
2019-03-11T04:40:26.860Z,8.27
2019-03-11T04:42:54.944Z,5.67
2019-03-11T04:45:21.950Z,5.83
2019-03-11T04:47:49.028Z,3.90
2019-03-11T04:50:16.190Z,5.33
2019-03-11T04:52:44.823Z,4.60
2019-03-11T04:55:12.350Z,2.60
2019-03-11T04:57:50.694Z,2.83
2019-03-11T05:00:22.575Z,4.80
2019-03-11T05:02:49.744Z,5.30
2019-03-11T05:05:17.192Z,5.17
2019-03-11T05:07:44.177Z,3.40
2019-03-11T05:10:11.362Z,6.23
2019-03-11T05:12:38.452Z,7.93
2019-03-11T05:15:05.736Z,4.97
2019-03-11T05:17:32.906Z,4.33
2019-03-11T05:19:59.913Z,5.67
2019-03-11T05:22:27.257Z,6.10
2019-03-11T05:24:54.575Z,5.10
2019-03-11T05:27:23.021Z,4.43
2019-03-11T05:29:50.356Z,9.77
2019-03-11T05:32:17.327Z,4.93
2019-03-11T05:34:44.508Z,6.07
2019-03-11T05:37:11.487Z,8.87
2019-03-11T05:39:38.976Z,7.10
2019-03-11T05:42:06.059Z,7.93
2019-03-11T05:44:33.072Z,8.43
2019-03-11T05:47:00.059Z,5.93
2019-03-11T05:49:27.350Z,3.27
2019-03-11T05:51:55.199Z,6.83
2019-03-11T05:54:22.603Z,9.33
2019-03-11T05:56:49.689Z,4.57
2019-03-11T05:59:16.795Z,4.47
2019-03-11T06:01:43.767Z,2.53
2019-03-11T06:04:10.743Z,4.43
2019-03-11T06:06:37.766Z,5.00
2019-03-11T06:09:05.870Z,5.47
2019-03-11T06:11:33.061Z,7.77
2019-03-11T06:14:00.138Z,4.83
2019-03-11T06:16:27.130Z,3.87
2019-03-11T06:18:54.703Z,5.93
2019-03-11T06:21:38.351Z,3.77
2019-03-11T06:24:05.600Z,6.97
2019-03-11T06:26:32.572Z,5.63
2019-03-11T06:28:59.692Z,6.70
2019-03-11T06:31:26.955Z,8.50
2019-03-11T06:33:54.355Z,10.97
2019-03-11T06:36:21.428Z,7.27
2019-03-11T06:38:48.470Z,9.70
2019-03-11T06:41:15.969Z,9.17
2019-03-11T06:43:43.307Z,11.43
2019-03-11T06:46:10.458Z,7.63
2019-03-11T06:48:37.713Z,10.17
2019-03-11T06:51:04.792Z,12.87
2019-03-11T06:53:31.805Z,12.15
2019-03-11T06:55:58.773Z,8.70
2019-03-11T06:58:25.781Z,7.13
2019-03-11T07:00:52.838Z,6.93
2019-03-11T07:03:20.202Z,11.97
2019-03-11T07:05:47.780Z,6.22
2019-03-11T07:08:14.955Z,7.80
2019-03-11T07:10:42.129Z,13.03
2019-03-11T07:13:09.207Z,8.38
2019-03-11T07:15:36.239Z,8.73
2019-03-11T07:18:05.417Z,8.95
2019-03-11T07:20:32.459Z,6.43
2019-03-11T07:22:59.414Z,5.30
2019-03-11T07:25:26.709Z,10.63
2019-03-11T07:27:53.682Z,8.90
2019-03-11T07:30:20.863Z,9.97
2019-03-11T07:32:47.936Z,8.97
2019-03-11T07:35:15.002Z,8.90
2019-03-11T07:37:42.031Z,6.37
2019-03-11T07:40:11.665Z,9.78
2019-03-11T07:42:38.799Z,6.45
2019-03-11T07:45:06.175Z,7.63
2019-03-11T07:47:33.531Z,6.75
2019-03-11T07:50:00.511Z,5.62
2019-03-11T07:52:27.554Z,7.87
2019-03-11T07:54:54.794Z,10.38
2019-03-11T07:57:22.014Z,6.97
2019-03-11T07:59:49.579Z,7.50
2019-03-11T08:02:18.374Z,9.10
2019-03-11T08:04:45.429Z,6.03
2019-03-11T08:07:12.635Z,4.90
2019-03-11T08:09:39.710Z,4.35
2019-03-11T08:12:07.379Z,7.03
2019-03-11T08:14:34.355Z,6.10
2019-03-11T08:17:01.762Z,5.10
2019-03-11T08:19:28.767Z,8.03
2019-03-11T08:21:55.786Z,5.62
2019-03-11T08:24:22.795Z,7.80
2019-03-11T08:26:49.989Z,8.28
2019-03-11T08:29:17.054Z,5.92
2019-03-11T08:31:44.687Z,7.10
2019-03-11T08:34:11.879Z,7.10
2019-03-11T08:36:39.201Z,8.28
2019-03-11T08:39:08.195Z,7.75
2019-03-11T08:41:37.045Z,7.87
2019-03-11T08:44:04.006Z,5.85
2019-03-11T08:46:31.285Z,8.80
2019-03-11T08:48:58.300Z,5.35
2019-03-11T08:51:26.476Z,5.75
2019-03-11T08:53:53.878Z,9.10
2019-03-11T08:56:20.854Z,5.58
2019-03-11T08:58:48.062Z,6.30
2019-03-11T09:01:15.442Z,5.05
2019-03-11T09:03:42.432Z,8.55
2019-03-11T09:06:09.374Z,3.72
2019-03-11T09:08:36.376Z,6.17
2019-03-11T09:11:03.374Z,7.37
2019-03-11T09:13:30.682Z,8.90
2019-03-11T09:15:57.929Z,8.20
2019-03-11T09:18:24.990Z,4.28
2019-03-11T09:20:52.082Z,3.00
2019-03-11T09:23:19.066Z,5.57
2019-03-11T09:25:46.037Z,3.90
2019-03-11T09:28:13.073Z,6.80
2019-03-11T09:30:40.454Z,7.47
2019-03-11T09:33:08.500Z,6.08
2019-03-11T09:35:35.962Z,10.50
2019-03-11T09:38:03.994Z,7.83
2019-03-11T09:40:31.969Z,3.37
2019-03-11T09:42:58.955Z,4.22
2019-03-11T09:45:25.943Z,7.97
2019-03-11T09:47:52.997Z,7.37
2019-03-11T09:50:20.084Z,7.17
2019-03-11T09:52:47.067Z,4.65
2019-03-11T09:55:14.582Z,4.62
2019-03-11T09:57:41.745Z,5.75
2019-03-11T10:00:14.791Z,3.42
2019-03-11T10:02:51.564Z,7.00
2019-03-11T10:05:10.930Z,3.60
2019-03-11T10:07:38.843Z,6.07
2019-03-11T10:10:07.609Z,3.83
2019-03-11T10:12:34.746Z,4.13
2019-03-11T10:15:01.997Z,4.20
2019-03-11T10:17:29.062Z,7.78
2019-03-11T10:19:56.154Z,3.98
2019-03-11T10:22:23.467Z,3.53
2019-03-11T10:24:50.443Z,8.00
2019-03-11T10:27:17.956Z,5.00
2019-03-11T10:29:45.234Z,5.85
2019-03-11T10:32:12.236Z,6.17
2019-03-11T10:34:39.343Z,5.33
2019-03-11T10:37:06.327Z,4.78
2019-03-11T10:39:33.840Z,5.22
2019-03-11T10:42:00.816Z,3.60
2019-03-11T10:44:27.819Z,4.40
2019-03-11T10:46:55.081Z,6.65
2019-03-11T10:49:22.056Z,4.67
2019-03-11T10:51:49.376Z,5.35
2019-03-11T10:54:17.342Z,6.45
2019-03-11T10:56:44.306Z,4.75
2019-03-11T10:59:11.507Z,5.12
2019-03-11T11:01:40.135Z,4.78
2019-03-11T11:04:07.125Z,4.62
2019-03-11T11:06:34.439Z,5.90
2019-03-11T11:09:01.475Z,4.40
2019-03-11T11:11:30.366Z,4.40
2019-03-11T11:13:57.345Z,3.42
2019-03-11T11:16:24.913Z,6.47
2019-03-11T11:18:52.283Z,4.55
2019-03-11T11:21:19.299Z,5.90
2019-03-11T11:23:46.293Z,2.95
2019-03-11T11:26:13.271Z,5.87
2019-03-11T11:28:40.251Z,4.05
2019-03-11T11:31:07.291Z,7.12
2019-03-11T11:33:34.394Z,4.72
2019-03-11T11:36:01.456Z,3.75
2019-03-11T11:38:29.102Z,3.50
2019-03-11T11:40:56.429Z,3.77
2019-03-11T11:43:23.586Z,4.65
2019-03-11T11:45:50.923Z,1.42
2019-03-11T11:48:18.024Z,4.45
2019-03-11T11:50:45.386Z,3.65
2019-03-11T11:53:12.504Z,2.50
2019-03-11T11:55:39.485Z,4.47
2019-03-11T11:58:06.626Z,5.42
2019-03-11T12:00:34.703Z,4.97
2019-03-11T12:03:02.072Z,6.45
2019-03-11T12:05:29.673Z,6.53
2019-03-11T12:07:57.075Z,3.15
2019-03-11T12:10:24.048Z,2.37
2019-03-11T12:12:51.539Z,5.15
2019-03-11T12:15:18.564Z,4.40
2019-03-11T12:17:45.968Z,7.95
2019-03-11T12:20:16.254Z,2.30
2019-03-11T12:22:43.620Z,4.10
2019-03-11T12:25:14.258Z,3.08
2019-03-11T12:27:52.716Z,3.25
2019-03-11T12:30:14.285Z,4.10
2019-03-11T12:32:41.528Z,5.80
2019-03-11T12:35:08.951Z,4.42
2019-03-11T12:37:36.095Z,1.67
2019-03-11T12:40:04.167Z,2.62
2019-03-11T12:42:31.388Z,2.65
2019-03-11T12:44:58.486Z,1.87
2019-03-11T12:47:27.044Z,1.62
2019-03-11T12:49:54.137Z,2.17
2019-03-11T12:52:21.635Z,2.58
2019-03-11T12:54:48.746Z,3.20
2019-03-11T12:57:15.894Z,0.95
2019-03-11T12:59:43.467Z,2.87
2019-03-11T13:02:10.503Z,3.05
2019-03-11T13:04:37.652Z,2.92
2019-03-11T13:07:04.744Z,9.90
2019-03-11T13:09:31.975Z,3.55
2019-03-11T13:11:59.116Z,2.87
2019-03-11T13:14:26.215Z,4.92
2019-03-11T13:16:53.280Z,6.10
2019-03-11T13:19:20.258Z,2.83
2019-03-11T13:21:47.648Z,2.17
2019-03-11T13:24:14.890Z,4.30
2019-03-11T13:26:41.961Z,8.03
2019-03-11T13:29:08.964Z,2.47
2019-03-11T13:31:36.201Z,4.85
2019-03-11T13:34:03.611Z,3.08
2019-03-11T13:36:30.718Z,2.45
2019-03-11T13:38:57.836Z,3.60
2019-03-11T13:41:25.473Z,2.70
2019-03-11T13:43:52.656Z,2.55
2019-03-11T13:46:19.773Z,1.67
2019-03-11T13:48:47.009Z,2.85
2019-03-11T13:51:14.879Z,1.52
2019-03-11T13:53:42.032Z,1.57
2019-03-11T13:56:09.463Z,0.82
2019-03-11T13:58:36.699Z,3.75
2019-03-11T14:01:03.915Z,2.12
2019-03-11T14:03:30.993Z,4.15
2019-03-11T14:05:58.071Z,1.90
2019-03-11T14:08:25.182Z,3.55
2019-03-11T14:10:52.320Z,2.62
2019-03-11T14:13:19.380Z,2.42
2019-03-11T14:15:46.536Z,1.90
2019-03-11T14:18:14.519Z,2.65
2019-03-11T14:20:41.501Z,1.85
2019-03-11T14:23:08.636Z,1.22
2019-03-11T14:25:36.110Z,7.45
2019-03-11T14:28:03.632Z,4.17
2019-03-11T14:30:30.831Z,1.57
2019-03-11T14:32:57.848Z,3.42
2019-03-11T14:35:25.056Z,3.33
2019-03-11T14:37:52.194Z,1.40
2019-03-11T14:40:19.708Z,1.82
2019-03-11T14:42:46.895Z,1.50
2019-03-11T14:45:14.215Z,1.25
2019-03-11T14:47:41.428Z,2.20
2019-03-11T14:50:08.990Z,1.10
2019-03-11T14:52:36.089Z,2.47
2019-03-11T14:55:03.928Z,2.60
2019-03-11T14:57:30.924Z,1.15
2019-03-11T14:59:57.956Z,2.00
2019-03-11T15:02:26.617Z,1.85
2019-03-11T15:04:53.574Z,2.22
2019-03-11T15:07:21.017Z,3.72
2019-03-11T15:09:51.637Z,1.22
2019-03-11T15:12:17.664Z,1.77
2019-03-11T15:14:45.020Z,2.37
2019-03-11T15:17:12.326Z,1.00
2019-03-11T15:19:39.372Z,1.57
2019-03-11T15:22:06.960Z,1.25
2019-03-11T15:24:34.115Z,1.10
2019-03-11T15:27:01.212Z,1.02
2019-03-11T15:29:28.284Z,1.57
2019-03-11T15:31:57.323Z,2.15
2019-03-11T15:34:24.378Z,2.05
2019-03-11T15:36:51.468Z,1.30
2019-03-11T15:39:18.904Z,1.12
2019-03-11T15:41:46.106Z,1.67
2019-03-11T15:44:13.460Z,3.22
2019-03-11T15:46:40.589Z,4.53
2019-03-11T15:49:07.697Z,1.25
2019-03-11T15:51:36.919Z,1.02
2019-03-11T15:54:04.348Z,1.12
2019-03-11T15:56:31.605Z,0.90
2019-03-11T15:58:58.936Z,1.57
2019-03-11T16:01:25.981Z,1.05
2019-03-11T16:03:53.475Z,4.47
2019-03-11T16:06:20.615Z,1.87
2019-03-11T16:08:48.075Z,2.30
2019-03-11T16:11:15.108Z,2.92
2019-03-11T16:13:42.493Z,1.62
2019-03-11T16:16:09.936Z,2.33
2019-03-11T16:18:38.436Z,4.00
2019-03-11T16:21:05.707Z,5.08
2019-03-11T16:23:32.707Z,3.15
2019-03-11T16:25:59.848Z,2.20
2019-03-11T16:28:28.032Z,3.17
2019-03-11T16:30:56.819Z,3.50
2019-03-11T16:33:23.859Z,3.62
2019-03-11T16:35:51.118Z,5.28
2019-03-11T16:38:18.179Z,3.05
2019-03-11T16:40:45.400Z,2.35
2019-03-11T16:43:12.466Z,2.75
2019-03-11T16:45:39.571Z,2.25
2019-03-11T16:48:06.527Z,3.72
2019-03-11T16:50:33.528Z,3.33
2019-03-11T16:53:00.518Z,1.70
2019-03-11T16:55:30.426Z,1.65
2019-03-11T16:57:57.930Z,2.90
2019-03-11T17:00:29.603Z,2.52
2019-03-11T17:02:56.570Z,4.75
2019-03-11T17:05:24.220Z,6.40
2019-03-11T17:07:51.220Z,4.08
2019-03-11T17:10:18.544Z,3.65
2019-03-11T17:12:45.627Z,3.70
2019-03-11T17:15:13.320Z,5.08
2019-03-11T17:17:40.317Z,3.08
2019-03-11T17:20:08.738Z,3.12
2019-03-11T17:22:35.748Z,4.03
2019-03-11T17:25:03.288Z,3.85
2019-03-11T17:27:30.302Z,2.67
2019-03-11T17:29:57.609Z,5.28
2019-03-11T17:32:24.597Z,5.60
2019-03-11T17:34:52.080Z,2.42
2019-03-11T17:37:19.262Z,3.47
2019-03-11T17:39:46.422Z,2.65
2019-03-11T17:42:13.410Z,5.37
2019-03-11T17:44:40.409Z,6.85
2019-03-11T17:47:07.640Z,2.77
2019-03-11T17:49:35.070Z,3.62
2019-03-11T17:52:02.364Z,5.05
2019-03-11T17:54:29.679Z,3.90
2019-03-11T17:56:56.644Z,4.60
2019-03-11T17:59:23.727Z,4.92
2019-03-11T18:01:50.992Z,7.33
2019-03-11T18:04:18.065Z,4.78
2019-03-11T18:06:45.359Z,5.42
2019-03-11T18:09:13.070Z,6.53
2019-03-11T18:11:40.306Z,4.75
2019-03-11T18:14:07.547Z,11.33
2019-03-11T18:16:34.514Z,5.50
2019-03-11T18:19:02.647Z,5.37
2019-03-11T18:21:29.611Z,37.45
2019-03-11T18:23:56.623Z,10.03
2019-03-11T18:26:23.811Z,7.12
2019-03-11T18:28:51.263Z,7.17
2019-03-11T18:31:18.853Z,4.67
2019-03-11T18:33:46.345Z,5.75
2019-03-11T18:36:13.325Z,6.15
2019-03-11T18:38:40.707Z,8.65
2019-03-11T18:41:07.742Z,4.75
2019-03-11T18:43:42.771Z,8.18
2019-03-11T18:46:04.022Z,7.42
2019-03-11T18:48:31.149Z,5.28
2019-03-11T18:51:09.848Z,6.72
2019-03-11T18:53:27.408Z,7.80
2019-03-11T18:55:54.399Z,7.45
2019-03-11T18:58:21.453Z,11.10
2019-03-11T19:00:48.402Z,10.15
2019-03-11T19:03:15.548Z,9.88
2019-03-11T19:05:42.748Z,9.43
2019-03-11T19:08:09.993Z,5.08
2019-03-11T19:10:37.175Z,5.87
2019-03-11T19:13:04.346Z,12.10
2019-03-11T19:15:31.551Z,8.03
2019-03-11T19:17:58.613Z,14.75
2019-03-11T19:20:25.837Z,12.18
2019-03-11T19:22:52.988Z,10.48
2019-03-11T19:25:20.172Z,18.57
2019-03-11T19:27:47.362Z,14.80
2019-03-11T19:30:16.229Z,12.90
2019-03-11T19:32:43.399Z,19.20
2019-03-11T19:35:10.738Z,25.20
2019-03-11T19:37:37.997Z,9.83
2019-03-11T19:40:05.795Z,11.40
2019-03-11T19:42:32.893Z,10.15
2019-03-11T19:44:59.951Z,10.85
2019-03-11T19:47:27.058Z,8.78
2019-03-11T19:49:54.409Z,8.03
2019-03-11T19:52:22.532Z,12.65
2019-03-11T19:54:50.280Z,12.45
2019-03-11T19:57:17.403Z,10.78
2019-03-11T19:59:44.670Z,10.32
2019-03-11T20:02:12.028Z,12.67
2019-03-11T20:04:39.308Z,13.18
2019-03-11T20:07:06.590Z,10.78
2019-03-11T20:09:34.480Z,10.20
2019-03-11T20:12:02.577Z,6.80
2019-03-11T20:14:29.852Z,8.00
2019-03-11T20:16:57.337Z,8.90
2019-03-11T20:19:24.597Z,6.33
2019-03-11T20:21:51.932Z,11.30
2019-03-11T20:24:19.545Z,8.90
2019-03-11T20:26:46.991Z,7.67
2019-03-11T20:29:14.179Z,7.95
2019-03-11T20:31:41.313Z,11.85
2019-03-11T20:34:08.560Z,6.47
2019-03-11T20:36:36.152Z,7.33
2019-03-11T20:39:05.077Z,6.10
2019-03-11T20:41:34.625Z,8.55
2019-03-11T20:44:04.731Z,10.58
2019-03-11T20:46:30.956Z,10.13
2019-03-11T20:48:58.524Z,8.15
2019-03-11T20:51:25.590Z,9.90
2019-03-11T20:53:52.751Z,9.43
2019-03-11T20:56:19.845Z,13.50
2019-03-11T20:58:47.051Z,6.58
2019-03-11T21:01:14.344Z,5.12
2019-03-11T21:03:41.576Z,11.97
2019-03-11T21:06:08.745Z,11.00
2019-03-11T21:08:36.236Z,10.50
2019-03-11T21:11:03.595Z,7.00
2019-03-11T21:13:30.935Z,6.80
2019-03-11T21:15:58.216Z,9.30
2019-03-11T21:18:25.539Z,8.45
2019-03-11T21:21:04.034Z,13.10
2019-03-11T21:23:22.448Z,8.40
2019-03-11T21:25:49.937Z,3.80
2019-03-11T21:28:17.486Z,7.37
2019-03-11T21:30:45.129Z,8.18
2019-03-11T21:33:12.496Z,5.05
2019-03-11T21:35:39.880Z,9.83
2019-03-11T21:38:07.338Z,7.65
2019-03-11T21:40:34.634Z,10.23
2019-03-11T21:43:01.929Z,5.67
2019-03-11T21:45:33.994Z,7.87
2019-03-11T21:47:58.187Z,7.00
2019-03-11T21:50:25.366Z,6.95
2019-03-11T21:52:52.580Z,7.90
2019-03-11T21:55:19.903Z,9.55
2019-03-11T21:57:47.105Z,6.37
2019-03-11T22:00:16.507Z,9.68
2019-03-11T22:02:43.696Z,7.17
2019-03-11T22:05:11.020Z,9.30
2019-03-11T22:07:38.361Z,8.40
2019-03-11T22:10:06.356Z,8.03
2019-03-11T22:12:33.318Z,6.15
2019-03-11T22:15:02.094Z,18.05
2019-03-11T22:17:30.944Z,9.48
2019-03-11T22:19:58.032Z,9.58
2019-03-11T22:22:25.546Z,8.15
2019-03-11T22:24:52.503Z,7.28
2019-03-11T22:27:19.519Z,8.33
2019-03-11T22:29:46.927Z,5.67
2019-03-11T22:32:14.084Z,8.10
2019-03-11T22:34:41.172Z,8.18
2019-03-11T22:37:08.308Z,10.28
2019-03-11T22:39:35.392Z,10.93
2019-03-11T22:42:03.026Z,14.55
2019-03-11T22:44:30.249Z,11.63
2019-03-11T22:46:57.539Z,6.10
2019-03-11T22:49:24.565Z,7.87
2019-03-11T22:51:51.901Z,9.23
2019-03-11T22:54:19.281Z,9.18
2019-03-11T22:56:46.271Z,8.80
2019-03-11T22:59:14.370Z,9.05
2019-03-11T23:01:42.116Z,8.70
2019-03-11T23:04:09.315Z,8.20
2019-03-11T23:06:36.332Z,13.75
2019-03-11T23:09:05.222Z,10.03
2019-03-11T23:11:33.330Z,11.30
2019-03-11T23:14:01.946Z,10.43
2019-03-11T23:16:28.919Z,9.63
2019-03-11T23:18:56.153Z,8.35
2019-03-11T23:21:23.231Z,12.35
2019-03-11T23:23:50.413Z,7.75
2019-03-11T23:26:18.265Z,11.88
2019-03-11T23:28:45.585Z,7.90
2019-03-11T23:31:12.767Z,11.22
2019-03-11T23:33:39.907Z,14.30
2019-03-11T23:36:07.580Z,6.33
2019-03-11T23:38:34.743Z,8.45
2019-03-11T23:41:01.830Z,9.03
2019-03-11T23:43:29.206Z,9.58
2019-03-11T23:45:56.479Z,8.65
2019-03-11T23:48:23.605Z,7.17
2019-03-11T23:50:50.705Z,9.90
2019-03-11T23:53:17.799Z,7.37
2019-03-11T23:55:45.280Z,8.53
2019-03-11T23:58:12.638Z,7.97
